Time;durP1;ratioP1;P1;durP2;ratioP2;P2;SDS_P1;SDS_P2;PMS_P1;PMS_P2;Temp;Humidity;BMP_temperature;BMP_pressure;BME280_temperature;BME280_humidity;BME280_pressure;Samples;Min_cycle;Max_cycle;Signal;HPM_P1;HPM_P2
2022/12/31 00:00:51;;;;;;;29.48;23.42;;;3.60;99.90;;;;;;5031320;28;20217;-88
2022/12/31 00:03:20;;;;;;;31.77;23.73;;;3.50;99.90;;;;;;5031122;28;20234;-87
2022/12/31 00:05:48;;;;;;;30.42;23.95;;;3.50;99.90;;;;;;5031242;28;20309;-88
2022/12/31 00:08:18;;;;;;;28.65;20.75;;;3.50;99.90;;;;;;5031085;28;20217;-87
2022/12/31 00:10:46;;;;;;;24.92;20.42;;;3.50;99.90;;;;;;5031173;28;20213;-87
2022/12/31 00:13:14;;;;;;;26.45;20.02;;;3.50;99.90;;;;;;5034571;28;20242;-87
2022/12/31 00:15:43;;;;;;;26.00;20.50;;;3.50;99.90;;;;;;5030981;28;20223;-87
2022/12/31 00:18:12;;;;;;;30.75;20.88;;;3.40;99.90;;;;;;5030906;28;20220;-87
2022/12/31 00:20:41;;;;;;;24.92;21.25;;;3.40;99.90;;;;;;5031142;28;20217;-87
2022/12/31 00:23:10;;;;;;;29.00;20.58;;;3.50;99.90;;;;;;5030654;28;20228;-87
2022/12/31 00:25:40;;;;;;;32.08;23.70;;;3.50;99.90;;;;;;5031890;28;20235;-86
2022/12/31 00:28:08;;;;;;;44.55;24.10;;;3.50;99.90;;;;;;5033217;28;20202;-87
2022/12/31 00:30:36;;;;;;;39.10;24.85;;;3.50;99.90;;;;;;5033429;28;20233;-87
2022/12/31 00:33:05;;;;;;;31.50;24.67;;;3.60;99.90;;;;;;5033406;28;20224;-87
2022/12/31 00:35:35;;;;;;;42.75;25.15;;;3.60;99.90;;;;;;5032952;28;20237;-87
2022/12/31 00:38:03;;;;;;;29.90;23.35;;;3.60;99.90;;;;;;5033085;28;20206;-87
2022/12/31 00:40:31;;;;;;;32.40;24.63;;;3.60;99.90;;;;;;5033243;28;20269;-87
2022/12/31 00:43:01;;;;;;;30.55;22.23;;;3.60;99.90;;;;;;5032710;28;20313;-88
2022/12/31 00:45:29;;;;;;;32.08;22.17;;;3.60;99.90;;;;;;5033172;28;20302;-87
2022/12/31 00:47:58;;;;;;;29.58;23.50;;;3.60;99.90;;;;;;5031776;28;20206;-87
2022/12/31 00:50:26;;;;;;;38.42;23.60;;;3.60;99.90;;;;;;5032750;28;20210;-87
2022/12/31 00:52:54;;;;;;;35.95;21.90;;;3.60;99.90;;;;;;5032839;28;20367;-87
2022/12/31 00:55:22;;;;;;;29.92;22.00;;;3.50;99.90;;;;;;5032688;28;20290;-87
2022/12/31 00:57:51;;;;;;;22.20;19.70;;;3.60;99.90;;;;;;5032880;28;20202;-86
2022/12/31 01:00:21;;;;;;;27.48;20.63;;;3.60;99.90;;;;;;5033034;28;20206;-86
2022/12/31 01:02:49;;;;;;;23.77;19.50;;;3.60;99.90;;;;;;5032699;28;20242;-87
2022/12/31 01:05:17;;;;;;;22.63;17.88;;;3.50;99.90;;;;;;5032501;28;20321;-86
2022/12/31 01:07:46;;;;;;;21.55;19.15;;;3.60;99.90;;;;;;5032603;28;20202;-87
2022/12/31 01:11:17;;;;;;;24.42;19.02;;;3.60;99.90;;;;;;5032581;28;20212;-87
2022/12/31 01:13:02;;;;;;;23.38;19.27;;;3.60;99.90;;;;;;5032753;28;20202;-87
2022/12/31 01:15:35;;;;;;;26.85;21.17;;;3.60;99.90;;;;;;5032707;28;20313;-87
2022/12/31 01:18:04;;;;;;;28.15;21.08;;;3.60;99.90;;;;;;5032691;28;20207;-86
2022/12/31 01:20:37;;;;;;;31.77;21.63;;;3.60;99.90;;;;;;5032601;28;20245;-87
2022/12/31 01:23:06;;;;;;;27.05;21.35;;;3.50;99.90;;;;;;5032340;28;20218;-87
2022/12/31 01:25:36;;;;;;;28.55;22.42;;;3.50;99.90;;;;;;5032684;28;20222;-87
2022/12/31 01:28:05;;;;;;;30.67;22.17;;;3.50;99.90;;;;;;5032813;28;20206;-86
2022/12/31 01:30:37;;;;;;;23.35;20.90;;;3.50;99.90;;;;;;5032399;28;20206;-87
2022/12/31 01:33:06;;;;;;;32.60;22.42;;;3.50;99.90;;;;;;5032609;28;20210;-86
2022/12/31 01:35:35;;;;;;;22.27;19.60;;;3.50;99.90;;;;;;5032167;28;20226;-86
2022/12/31 01:38:04;;;;;;;20.05;17.92;;;3.40;99.90;;;;;;5032449;28;20217;-86
2022/12/31 01:40:36;;;;;;;20.10;17.15;;;3.50;99.90;;;;;;5032738;28;20238;-87
2022/12/31 01:43:15;;;;;;;24.60;18.98;;;3.40;99.90;;;;;;5032321;28;20236;-87
2022/12/31 01:45:47;;;;;;;18.33;16.23;;;3.40;99.90;;;;;;5031858;28;20236;-86
2022/12/31 01:48:20;;;;;;;26.63;19.67;;;3.40;99.90;;;;;;5032081;28;20253;-86
2022/12/31 01:50:49;;;;;;;23.35;18.08;;;3.50;99.90;;;;;;5032348;28;20222;-86
2022/12/31 01:53:18;;;;;;;24.10;17.35;;;3.50;99.90;;;;;;5032774;28;20206;-86
2022/12/31 01:55:50;;;;;;;19.70;17.17;;;3.40;99.90;;;;;;5031928;28;20226;-86
2022/12/31 01:58:22;;;;;;;17.75;15.60;;;3.40;99.90;;;;;;5032296;28;20227;-87
2022/12/31 02:00:53;;;;;;;21.98;17.92;;;3.50;99.90;;;;;;5036125;28;20214;-86
2022/12/31 02:03:23;;;;;;;19.25;17.17;;;3.40;99.90;;;;;;5036101;28;20222;-86
2022/12/31 02:05:57;;;;;;;19.25;16.98;;;3.50;99.90;;;;;;5036199;28;20225;-87
2022/12/31 02:08:26;;;;;;;21.63;18.17;;;3.50;99.90;;;;;;5035595;28;20210;-87
2022/12/31 02:10:54;;;;;;;20.05;17.15;;;3.40;99.90;;;;;;5036001;28;20209;-86
2022/12/31 02:13:23;;;;;;;18.02;15.98;;;3.50;99.90;;;;;;5035723;28;20202;-86
2022/12/31 02:16:01;;;;;;;21.63;18.20;;;3.40;99.90;;;;;;5035629;28;20226;-86
2022/12/31 02:18:35;;;;;;;19.05;17.05;;;3.40;99.90;;;;;;5036011;28;20238;-86
2022/12/31 02:21:33;;;;;;;20.63;17.83;;;3.40;99.90;;;;;;5035579;28;20213;-86
2022/12/31 02:24:34;;;;;;;20.02;17.27;;;3.40;99.90;;;;;;5033277;28;20229;-86
2022/12/31 02:27:09;;;;;;;28.77;18.60;;;3.40;99.90;;;;;;5012981;28;20211;-86
2022/12/31 02:30:04;;;;;;;18.63;16.77;;;3.40;99.90;;;;;;5035815;28;20217;-87
2022/12/31 02:32:58;;;;;;;22.02;18.50;;;3.40;99.90;;;;;;5035665;28;20217;-87
2022/12/31 02:35:32;;;;;;;19.25;15.90;;;3.50;99.90;;;;;;5032586;28;20249;-86
2022/12/31 02:38:05;;;;;;;22.02;17.02;;;3.50;99.90;;;;;;5034689;28;20205;-87
2022/12/31 02:40:35;;;;;;;21.38;17.13;;;3.50;99.90;;;;;;5035308;28;20241;-86
2022/12/31 02:43:03;;;;;;;21.17;18.77;;;3.40;99.90;;;;;;5035189;28;20226;-86
2022/12/31 02:45:37;;;;;;;20.02;16.38;;;3.40;99.90;;;;;;5037432;28;20318;-86
2022/12/31 02:48:31;;;;;;;19.45;17.35;;;3.40;99.90;;;;;;5034734;28;20237;-86
2022/12/31 02:51:11;;;;;;;22.40;18.70;;;3.40;99.90;;;;;;5034907;28;20206;-87
2022/12/31 02:54:17;;;;;;;22.63;17.60;;;3.40;99.90;;;;;;5035178;28;20277;-87
2022/12/31 02:56:52;;;;;;;23.02;17.95;;;3.40;99.90;;;;;;5034888;28;20230;-86
2022/12/31 03:02:18;;;;;;;20.45;16.92;;;3.50;99.90;;;;;;5034736;28;20206;-87
2022/12/31 03:04:50;;;;;;;23.30;17.38;;;3.50;99.90;;;;;;5034537;28;20233;-86
2022/12/31 03:07:21;;;;;;;20.95;17.70;;;3.50;99.90;;;;;;5034639;28;20218;-86
2022/12/31 03:09:50;;;;;;;20.17;16.83;;;3.50;99.90;;;;;;5034389;28;20221;-86
2022/12/31 03:15:18;;;;;;;23.45;18.90;;;3.50;99.90;;;;;;5034813;28;20233;-87
2022/12/31 03:17:51;;;;;;;21.35;16.38;;;3.50;99.90;;;;;;5034347;28;20245;-87
2022/12/31 03:23:08;;;;;;;18.05;16.25;;;3.60;99.90;;;;;;5034355;28;20237;-87
2022/12/31 03:25:37;;;;;;;21.85;17.45;;;3.60;99.90;;;;;;5034390;28;20313;-87
2022/12/31 03:28:08;;;;;;;18.45;16.50;;;3.60;99.90;;;;;;5033919;28;20202;-87
2022/12/31 03:30:37;;;;;;;22.08;16.95;;;3.60;99.90;;;;;;5034385;28;20211;-87
2022/12/31 03:33:08;;;;;;;21.25;17.88;;;3.60;99.90;;;;;;5034485;28;20202;-87
2022/12/31 03:35:38;;;;;;;25.40;18.23;;;3.60;99.90;;;;;;5033920;28;20236;-86
2022/12/31 03:38:07;;;;;;;19.40;16.40;;;3.60;99.90;;;;;;5034148;28;20297;-86
2022/12/31 03:40:39;;;;;;;20.40;17.15;;;3.60;99.90;;;;;;5034236;28;20233;-86
2022/12/31 03:43:07;;;;;;;20.30;18.10;;;3.70;99.90;;;;;;5034126;28;20213;-86
2022/12/31 03:45:36;;;;;;;20.00;16.23;;;3.60;99.90;;;;;;5033379;28;20226;-86
2022/12/31 03:48:08;;;;;;;25.45;18.17;;;3.60;99.90;;;;;;5033762;28;20290;-87
2022/12/31 03:50:37;;;;;;;18.83;16.80;;;3.70;99.90;;;;;;5033940;28;20206;-87
2022/12/31 03:53:05;;;;;;;31.50;19.08;;;3.70;99.90;;;;;;5033935;28;20233;-86
2022/12/31 03:55:34;;;;;;;18.38;16.40;;;3.70;99.90;;;;;;5033884;28;20231;-86
2022/12/31 03:58:02;;;;;;;27.75;19.15;;;3.70;99.90;;;;;;5033464;28;20216;-86
2022/12/31 04:00:30;;;;;;;20.55;17.30;;;3.60;99.90;;;;;;5034063;28;20207;-86
2022/12/31 04:02:58;;;;;;;21.00;16.60;;;3.70;99.90;;;;;;5033887;28;20214;-87
2022/12/31 04:05:28;;;;;;;23.02;17.08;;;3.70;99.90;;;;;;5033154;28;20264;-86
2022/12/31 04:07:56;;;;;;;17.67;15.88;;;3.70;99.90;;;;;;5033559;28;20202;-87
2022/12/31 04:10:25;;;;;;;21.80;17.85;;;3.70;99.90;;;;;;5033345;28;20206;-87
2022/12/31 04:12:53;;;;;;;18.60;16.63;;;3.70;99.90;;;;;;5033818;28;20220;-87
2022/12/31 04:15:21;;;;;;;18.08;15.80;;;3.70;99.90;;;;;;5033337;28;20226;-86
2022/12/31 04:17:50;;;;;;;18.75;15.82;;;3.70;99.90;;;;;;5033133;28;20313;-87
2022/12/31 04:20:18;;;;;;;18.33;15.70;;;3.60;99.90;;;;;;5033261;28;20220;-86
2022/12/31 04:22:48;;;;;;;20.90;16.67;;;3.60;99.90;;;;;;5032687;28;20202;-86
2022/12/31 04:25:16;;;;;;;17.52;15.57;;;3.50;99.90;;;;;;5033056;28;20227;-85
2022/12/31 04:27:44;;;;;;;18.23;15.68;;;3.50;99.90;;;;;;5033022;28;20203;-86
2022/12/31 04:30:14;;;;;;;21.95;16.15;;;3.50;99.90;;;;;;5033398;28;20202;-86
2022/12/31 04:32:42;;;;;;;22.58;16.92;;;3.60;99.90;;;;;;5032941;28;20206;-86
2022/12/31 04:35:11;;;;;;;23.30;16.80;;;3.60;99.90;;;;;;5032758;28;20219;-86
2022/12/31 04:37:39;;;;;;;19.27;16.75;;;3.60;99.90;;;;;;5032451;28;20198;-86
2022/12/31 04:40:11;;;;;;;20.73;15.40;;;3.60;99.90;;;;;;5033019;28;20207;-86
2022/12/31 04:42:39;;;;;;;18.23;16.23;;;3.60;99.90;;;;;;5033569;28;20293;-86
2022/12/31 04:45:08;;;;;;;17.05;15.30;;;3.70;99.90;;;;;;5032594;28;20227;-86
2022/12/31 04:47:37;;;;;;;16.92;15.13;;;3.60;99.90;;;;;;5032112;28;20202;-86
2022/12/31 04:50:06;;;;;;;20.30;16.13;;;3.70;99.90;;;;;;5033075;28;20202;-86
2022/12/31 04:52:34;;;;;;;19.00;16.00;;;3.60;99.90;;;;;;5032938;28;20218;-86
2022/12/31 04:55:11;;;;;;;18.17;16.08;;;3.60;99.90;;;;;;5032939;28;20287;-86
2022/12/31 04:57:40;;;;;;;16.90;15.02;;;3.60;99.90;;;;;;5032321;28;20214;-86
2022/12/31 05:00:10;;;;;;;17.17;15.05;;;3.50;99.90;;;;;;5032685;28;20206;-85
2022/12/31 05:02:38;;;;;;;18.00;16.00;;;3.60;99.90;;;;;;5032891;28;20210;-86
2022/12/31 05:05:07;;;;;;;23.17;15.85;;;3.50;99.90;;;;;;5032779;28;20230;-86
2022/12/31 05:07:35;;;;;;;18.17;15.02;;;3.50;99.90;;;;;;5032370;28;20218;-86
2022/12/31 05:10:04;;;;;;;14.90;13.40;;;3.50;99.90;;;;;;5032526;28;20292;-86
2022/12/31 05:12:34;;;;;;;20.05;15.93;;;3.50;99.90;;;;;;5032369;28;20202;-86
2022/12/31 05:15:02;;;;;;;17.17;15.05;;;3.60;99.90;;;;;;5032366;28;20237;-86
2022/12/31 05:17:31;;;;;;;18.80;14.85;;;3.60;99.90;;;;;;5032491;28;20207;-86
2022/12/31 05:19:59;;;;;;;16.75;14.82;;;3.60;99.90;;;;;;5035480;28;20453;-86
2022/12/31 05:22:30;;;;;;;16.48;14.77;;;3.60;99.90;;;;;;5032554;28;20206;-86
2022/12/31 05:24:59;;;;;;;14.30;12.95;;;3.50;99.90;;;;;;5032331;28;20234;-85
2022/12/31 05:27:30;;;;;;;15.90;14.27;;;3.60;99.90;;;;;;5032525;28;20221;-88
2022/12/31 05:30:00;;;;;;;18.73;14.27;;;3.50;99.90;;;;;;5032518;28;20210;-86
2022/12/31 05:32:28;;;;;;;18.15;14.93;;;3.60;99.90;;;;;;5032416;28;20216;-86
2022/12/31 05:34:58;;;;;;;17.55;14.93;;;3.60;99.90;;;;;;5036678;28;20222;-85
2022/12/31 05:37:28;;;;;;;19.40;15.30;;;3.60;99.90;;;;;;5036157;28;20268;-85
2022/12/31 05:39:56;;;;;;;18.33;14.93;;;3.50;99.90;;;;;;5036438;28;20218;-86
2022/12/31 05:42:24;;;;;;;18.45;14.80;;;3.50;99.90;;;;;;5036382;28;20210;-86
2022/12/31 05:44:54;;;;;;;17.27;14.57;;;3.50;99.90;;;;;;5036331;28;20222;-87
2022/12/31 05:47:24;;;;;;;16.42;14.52;;;3.50;99.90;;;;;;5035650;28;20202;-86
2022/12/31 05:49:53;;;;;;;17.40;15.20;;;3.50;99.90;;;;;;5036457;28;20216;-86
2022/12/31 05:52:21;;;;;;;26.60;15.75;;;3.40;99.90;;;;;;5035919;28;20210;-86
2022/12/31 05:54:50;;;;;;;21.10;15.27;;;3.50;99.90;;;;;;5035866;28;20234;-87
2022/12/31 05:57:18;;;;;;;19.13;15.90;;;3.50;99.90;;;;;;5035798;28;20216;-86
2022/12/31 05:59:46;;;;;;;16.83;15.02;;;3.50;99.90;;;;;;5036042;28;20206;-86
2022/12/31 06:02:14;;;;;;;17.63;14.80;;;3.50;99.90;;;;;;5036028;28;20224;-86
2022/12/31 06:04:44;;;;;;;17.25;15.40;;;3.50;99.90;;;;;;5035948;28;20227;-85
2022/12/31 06:07:13;;;;;;;22.85;16.70;;;3.40;99.90;;;;;;5035593;28;20206;-86
2022/12/31 06:09:41;;;;;;;17.98;15.18;;;3.40;99.90;;;;;;5035906;28;20202;-86
2022/12/31 06:12:10;;;;;;;18.73;15.55;;;3.40;99.90;;;;;;5036038;28;20210;-85
2022/12/31 06:14:38;;;;;;;16.35;14.63;;;3.50;99.90;;;;;;5035442;28;20209;-85
2022/12/31 06:17:12;;;;;;;16.00;14.15;;;3.50;99.90;;;;;;5035534;28;20229;-85
2022/12/31 06:19:40;;;;;;;17.50;15.65;;;3.50;99.90;;;;;;5035753;28;20238;-86
2022/12/31 06:22:10;;;;;;;18.38;15.70;;;3.50;99.90;;;;;;5035231;28;20207;-85
2022/12/31 06:24:38;;;;;;;17.13;15.07;;;3.50;99.90;;;;;;5035147;28;20264;-85
2022/12/31 06:27:07;;;;;;;18.02;15.50;;;3.60;99.90;;;;;;5035389;28;20206;-84
2022/12/31 06:29:35;;;;;;;16.83;15.13;;;3.60;99.90;;;;;;5035413;28;20202;-85
2022/12/31 06:32:03;;;;;;;16.52;14.82;;;3.50;99.90;;;;;;5035841;28;20213;-85
2022/12/31 06:34:32;;;;;;;17.02;15.02;;;3.60;99.90;;;;;;5035353;28;20202;-85
2022/12/31 06:37:00;;;;;;;32.83;16.40;;;3.60;99.90;;;;;;5035104;28;20297;-85
2022/12/31 06:39:29;;;;;;;17.90;15.48;;;3.60;99.90;;;;;;5035624;28;20215;-85
2022/12/31 06:41:58;;;;;;;16.83;15.20;;;3.60;99.90;;;;;;5035287;28;20213;-86
2022/12/31 06:44:26;;;;;;;21.20;16.77;;;3.60;99.90;;;;;;5034415;28;20202;-86
2022/12/31 06:46:54;;;;;;;17.80;15.93;;;3.60;99.90;;;;;;5034557;28;20222;-86
2022/12/31 06:49:22;;;;;;;16.33;14.15;;;3.60;99.90;;;;;;5034642;28;20207;-86
2022/12/31 06:51:51;;;;;;;19.02;16.40;;;3.60;99.90;;;;;;5035050;28;20214;-85
2022/12/31 06:54:19;;;;;;;16.13;14.55;;;3.60;99.90;;;;;;5034965;28;20222;-85
2022/12/31 06:56:49;;;;;;;17.23;15.52;;;3.60;99.90;;;;;;5034909;28;20202;-86
2022/12/31 06:59:29;;;;;;;19.25;15.70;;;3.70;99.90;;;;;;5035208;28;20211;-86
2022/12/31 07:02:17;;;;;;;16.15;14.45;;;3.60;99.90;;;;;;5035223;28;20210;-86
2022/12/31 07:05:10;;;;;;;17.45;14.80;;;3.70;99.90;;;;;;5034932;28;20318;-84
2022/12/31 07:07:48;;;;;;;15.00;13.48;;;3.70;99.90;;;;;;5034938;28;20206;-85
2022/12/31 07:10:24;;;;;;;16.13;14.57;;;3.70;99.90;;;;;;5034905;28;20265;-85
2022/12/31 07:13:12;;;;;;;21.13;15.50;;;3.60;99.90;;;;;;5034405;28;20210;-84
2022/12/31 07:15:51;;;;;;;17.00;14.80;;;3.60;99.90;;;;;;5034632;28;20231;-85
2022/12/31 07:18:31;;;;;;;16.55;14.32;;;3.70;99.90;;;;;;5034323;28;20210;-85
2022/12/31 07:20:59;;;;;;;17.13;15.32;;;3.70;99.90;;;;;;5034407;28;20220;-85
2022/12/31 07:23:28;;;;;;;17.48;14.38;;;3.70;99.90;;;;;;5034536;28;20230;-85
2022/12/31 07:26:06;;;;;;;15.82;14.20;;;3.70;99.90;;;;;;5034165;28;20227;-85
2022/12/31 07:28:48;;;;;;;17.10;14.60;;;3.80;99.90;;;;;;5034255;28;20203;-85
2022/12/31 07:31:27;;;;;;;17.23;14.88;;;3.80;99.90;;;;;;5034381;28;20202;-85
2022/12/31 07:34:00;;;;;;;16.75;14.07;;;3.80;99.90;;;;;;5034529;28;20210;-85
2022/12/31 07:36:47;;;;;;;16.35;14.60;;;3.90;99.90;;;;;;5034137;28;20245;-85
2022/12/31 07:39:21;;;;;;;16.35;14.68;;;3.90;99.90;;;;;;5034426;28;20212;-86
2022/12/31 07:41:57;;;;;;;16.98;15.27;;;3.90;99.90;;;;;;5034151;28;20233;-85
2022/12/31 07:44:37;;;;;;;18.77;15.73;;;4.00;99.90;;;;;;5034330;28;20206;-86
2022/12/31 07:47:19;;;;;;;14.85;13.45;;;4.00;99.90;;;;;;5033316;28;20217;-85
2022/12/31 07:49:48;;;;;;;18.80;15.32;;;4.00;99.90;;;;;;5034823;28;20214;-86
2022/12/31 07:52:17;;;;;;;17.98;15.50;;;4.00;99.90;;;;;;5033817;28;20213;-84
2022/12/31 07:54:45;;;;;;;16.42;14.73;;;4.10;99.90;;;;;;5033598;28;20222;-85
2022/12/31 07:57:16;;;;;;;16.88;15.00;;;4.10;99.90;;;;;;5032899;28;20213;-85
2022/12/31 08:00:05;;;;;;;18.35;16.65;;;4.10;99.90;;;;;;5034028;28;20206;-85
2022/12/31 08:03:03;;;;;;;18.52;16.25;;;4.20;99.90;;;;;;5033588;28;20213;-86
2022/12/31 08:05:37;;;;;;;14.88;13.40;;;4.20;99.90;;;;;;5030526;28;20230;-85
2022/12/31 08:08:18;;;;;;;16.42;14.75;;;4.30;99.90;;;;;;5033661;28;20209;-85
2022/12/31 08:11:01;;;;;;;16.65;14.88;;;4.30;99.90;;;;;;5033769;28;20214;-85
2022/12/31 08:13:30;;;;;;;16.63;14.52;;;4.30;99.90;;;;;;5033418;28;20262;-85
2022/12/31 08:16:02;;;;;;;15.80;13.93;;;4.40;99.90;;;;;;5033125;28;20226;-85
2022/12/31 08:18:31;;;;;;;16.08;14.38;;;4.40;99.90;;;;;;5033291;28;20243;-85
2022/12/31 08:21:14;;;;;;;16.65;14.70;;;4.50;99.90;;;;;;5033319;28;20221;-86
2022/12/31 08:23:50;;;;;;;16.38;13.73;;;4.60;99.90;;;;;;5033145;28;20216;-85
2022/12/31 08:26:30;;;;;;;16.55;13.48;;;4.60;99.90;;;;;;5033140;28;20229;-85
2022/12/31 08:29:26;;;;;;;13.98;12.55;;;4.70;99.90;;;;;;5032776;28;20206;-84
2022/12/31 08:32:03;;;;;;;16.45;13.40;;;4.70;99.90;;;;;;5033222;28;20229;-84
2022/12/31 08:34:38;;;;;;;13.88;12.45;;;4.70;99.90;;;;;;5032800;28;20229;-85
2022/12/31 08:37:12;;;;;;;16.70;13.98;;;4.80;99.90;;;;;;5033083;28;20216;-85
2022/12/31 08:40:05;;;;;;;20.20;13.30;;;4.80;99.90;;;;;;5033070;28;20213;-86
2022/12/31 08:42:40;;;;;;;12.93;11.57;;;4.80;99.90;;;;;;5033025;28;20242;-86
2022/12/31 08:45:17;;;;;;;14.77;13.07;;;4.80;99.90;;;;;;5033023;28;20308;-86
2022/12/31 08:47:54;;;;;;;13.25;12.05;;;4.90;99.90;;;;;;5032362;28;20218;-85
2022/12/31 08:50:27;;;;;;;20.48;14.13;;;4.90;99.90;;;;;;5033205;28;20257;-85
2022/12/31 08:52:56;;;;;;;16.30;12.35;;;5.00;99.90;;;;;;5032720;28;20240;-85
2022/12/31 08:55:25;;;;;;;12.98;11.68;;;5.00;99.90;;;;;;5032861;28;20226;-85
2022/12/31 08:58:07;;;;;;;14.48;11.90;;;5.10;99.90;;;;;;5032820;28;20206;-85
2022/12/31 09:00:37;;;;;;;13.73;11.90;;;5.10;99.90;;;;;;5032737;28;20285;-85
2022/12/31 09:03:27;;;;;;;19.48;13.52;;;5.10;99.90;;;;;;5032952;28;20218;-85
2022/12/31 09:06:06;;;;;;;12.95;11.52;;;5.20;99.90;;;;;;5032851;28;20219;-84
2022/12/31 09:08:44;;;;;;;15.27;10.75;;;5.20;99.90;;;;;;5032131;28;20248;-84
2022/12/31 09:11:18;;;;;;;13.18;11.88;;;5.30;99.90;;;;;;5032903;28;20209;-85
2022/12/31 09:14:21;;;;;;;15.18;13.00;;;5.40;99.90;;;;;;5032829;28;20209;-85
2022/12/31 09:16:59;;;;;;;13.50;12.10;;;5.50;99.90;;;;;;5032345;28;20229;-85
2022/12/31 09:19:29;;;;;;;14.65;13.05;;;5.50;99.90;;;;;;5032463;28;20210;-86
2022/12/31 09:21:58;;;;;;;13.15;11.88;;;5.60;99.90;;;;;;5032767;28;20198;-86
2022/12/31 09:24:27;;;;;;;17.73;14.05;;;5.60;99.90;;;;;;5032700;28;20218;-86
2022/12/31 09:27:04;;;;;;;16.38;13.45;;;5.60;99.90;;;;;;5032431;28;20229;-85
2022/12/31 09:29:43;;;;;;;16.10;14.60;;;5.60;99.90;;;;;;5032712;28;20214;-85
2022/12/31 09:32:23;;;;;;;14.60;13.00;;;5.60;99.90;;;;;;5032706;28;20212;-86
2022/12/31 09:34:57;;;;;;;19.27;13.00;;;5.70;99.90;;;;;;5032479;28;20317;-85
2022/12/31 09:37:38;;;;;;;15.73;14.05;;;5.70;99.90;;;;;;5032439;28;20209;-86
2022/12/31 09:40:32;;;;;;;13.73;12.45;;;5.80;99.90;;;;;;5032392;28;20216;-85
2022/12/31 09:43:17;;;;;;;27.00;12.73;;;5.80;99.90;;;;;;5032872;28;20224;-85
2022/12/31 09:46:18;;;;;;;15.38;13.60;;;5.90;99.90;;;;;;5031859;28;20227;-86
2022/12/31 09:49:11;;;;;;;15.55;12.98;;;5.90;99.90;;;;;;5027206;28;20205;-85
2022/12/31 09:51:56;;;;;;;18.63;13.52;;;5.90;99.90;;;;;;5032217;28;20209;-85
2022/12/31 09:54:36;;;;;;;13.65;12.07;;;6.00;99.90;;;;;;5032345;28;20214;-85
2022/12/31 09:57:30;;;;;;;20.95;12.80;;;6.10;99.90;;;;;;5032099;28;20261;-85
2022/12/31 10:00:03;;;;;;;15.73;13.55;;;6.10;99.90;;;;;;5032097;28;20210;-85
2022/12/31 10:02:52;;;;;;;16.40;12.23;;;6.20;99.90;;;;;;5032266;28;20210;-86
2022/12/31 10:05:42;;;;;;;14.25;12.80;;;6.20;99.90;;;;;;5032217;28;20258;-86
2022/12/31 10:08:26;;;;;;;16.17;13.20;;;6.30;99.90;;;;;;5031677;28;20222;-85
2022/12/31 10:10:58;;;;;;;16.60;13.10;;;6.20;99.90;;;;;;5032486;28;20202;-85
2022/12/31 10:13:43;;;;;;;15.18;13.20;;;6.30;99.90;;;;;;5032151;28;20206;-85
2022/12/31 10:16:27;;;;;;;14.27;12.82;;;6.30;99.90;;;;;;5031992;28;20236;-85
2022/12/31 10:19:23;;;;;;;13.32;11.93;;;6.30;99.90;;;;;;5032843;28;20230;-85
2022/12/31 10:22:08;;;;;;;12.02;10.98;;;6.30;99.90;;;;;;5035838;28;20217;-85
2022/12/31 10:25:01;;;;;;;13.77;12.48;;;6.30;99.90;;;;;;5035547;28;20206;-85
2022/12/31 10:27:44;;;;;;;15.88;13.00;;;6.30;99.90;;;;;;5035496;28;20223;-85
2022/12/31 10:30:16;;;;;;;14.15;12.68;;;6.30;99.90;;;;;;5035607;28;20210;-85
2022/12/31 10:32:53;;;;;;;14.90;13.00;;;6.40;99.90;;;;;;5035611;28;20215;-86
2022/12/31 10:35:39;;;;;;;14.57;13.07;;;6.40;99.90;;;;;;5035532;28;20226;-85
2022/12/31 10:38:26;;;;;;;13.27;11.63;;;6.50;99.90;;;;;;5035059;28;20210;-86
2022/12/31 10:41:24;;;;;;;17.80;12.57;;;6.60;99.90;;;;;;5035480;28;20211;-86
2022/12/31 10:44:28;;;;;;;16.58;13.32;;;6.70;99.90;;;;;;5035123;28;20221;-85
2022/12/31 10:47:27;;;;;;;12.93;11.70;;;6.80;99.90;;;;;;5035016;28;20218;-85
2022/12/31 10:50:22;;;;;;;12.52;10.77;;;6.80;99.90;;;;;;5035117;28;20210;-86
2022/12/31 10:53:21;;;;;;;12.43;11.23;;;7.00;99.90;;;;;;5034902;28;20210;-86
2022/12/31 10:56:15;;;;;;;15.02;13.63;;;7.10;99.90;;;;;;5034689;28;20241;-85
2022/12/31 10:59:19;;;;;;;18.60;14.70;;;7.10;99.90;;;;;;5035242;28;20206;-85
2022/12/31 11:01:51;;;;;;;22.25;19.52;;;7.10;99.90;;;;;;5035698;28;20209;-85
2022/12/31 11:04:56;;;;;;;25.00;19.48;;;7.10;99.90;;;;;;5034751;28;20202;-86
2022/12/31 11:08:00;;;;;;;21.70;16.10;;;7.10;99.90;;;;;;5034724;28;20230;-85
2022/12/31 11:10:52;;;;;;;14.00;12.13;;;7.20;99.90;;;;;;5034430;28;20213;-86
2022/12/31 11:13:39;;;;;;;13.90;11.85;;;7.20;99.90;;;;;;5034931;28;20198;-86
2022/12/31 11:16:27;;;;;;;16.38;11.38;;;7.20;99.90;;;;;;5034489;28;20229;-86
2022/12/31 11:19:02;;;;;;;14.65;13.13;;;7.30;99.90;;;;;;5034436;28;20207;-86
2022/12/31 11:21:40;;;;;;;19.13;14.70;;;7.40;99.90;;;;;;5034370;28;20214;-86
2022/12/31 11:24:25;;;;;;;18.08;14.13;;;7.60;99.90;;;;;;5034390;28;20285;-86
2022/12/31 11:27:07;;;;;;;21.17;13.40;;;7.80;99.90;;;;;;5034529;28;20210;-87
2022/12/31 11:29:57;;;;;;;18.00;12.57;;;7.90;99.90;;;;;;5034400;28;20217;-85
2022/12/31 11:32:39;;;;;;;12.50;11.20;;;8.00;99.90;;;;;;5034068;28;20214;-86
2022/12/31 11:35:22;;;;;;;23.00;14.82;;;8.10;99.90;;;;;;5034237;28;20234;-86
2022/12/31 11:37:52;;;;;;;14.88;13.10;;;8.10;99.90;;;;;;5034183;28;20217;-86
2022/12/31 11:40:46;;;;;;;24.45;13.00;;;8.00;99.90;;;;;;5034526;28;20218;-86
2022/12/31 11:43:27;;;;;;;15.18;13.50;;;8.10;99.90;;;;;;5034246;28;20298;-85
2022/12/31 11:46:28;;;;;;;12.85;11.38;;;8.10;99.90;;;;;;5033784;28;20244;-88
2022/12/31 11:49:24;;;;;;;13.60;12.20;;;8.20;99.90;;;;;;5027772;28;20229;-86
2022/12/31 11:52:18;;;;;;;14.32;12.70;;;8.30;99.90;;;;;;5033968;28;20213;-86
2022/12/31 11:55:00;;;;;;;12.57;11.23;;;8.30;99.90;;;;;;5034185;28;20230;-86
2022/12/31 11:57:34;;;;;;;14.50;12.05;;;8.40;99.90;;;;;;5033377;28;20214;-86
2022/12/31 12:00:07;;;;;;;13.50;12.18;;;8.50;99.90;;;;;;5033837;28;20214;-88
2022/12/31 12:02:38;;;;;;;13.52;12.20;;;8.50;99.90;;;;;;5033640;28;20212;-86
2022/12/31 12:05:08;;;;;;;13.55;12.15;;;8.40;99.90;;;;;;5033824;28;20252;-85
2022/12/31 12:07:39;;;;;;;14.35;12.68;;;8.40;99.90;;;;;;5033384;28;20242;-86
2022/12/31 12:10:21;;;;;;;17.38;13.95;;;8.40;99.90;;;;;;5033888;28;20202;-86
2022/12/31 12:12:50;;;;;;;14.70;12.38;;;8.40;99.90;;;;;;5033466;28;20221;-86
2022/12/31 12:15:22;;;;;;;12.57;11.38;;;8.40;99.90;;;;;;5033502;28;20242;-86
2022/12/31 12:17:52;;;;;;;16.92;14.05;;;8.40;99.90;;;;;;5033133;28;20206;-86
2022/12/31 12:20:28;;;;;;;13.43;11.98;;;8.30;99.90;;;;;;5033578;28;20320;-86
2022/12/31 12:22:58;;;;;;;17.08;13.60;;;8.20;99.90;;;;;;5033410;28;20215;-86
2022/12/31 12:25:36;;;;;;;14.48;12.80;;;8.10;99.90;;;;;;5033196;28;20228;-86
2022/12/31 12:28:18;;;;;;;14.48;13.02;;;8.10;99.90;;;;;;5033153;28;20222;-86
2022/12/31 12:30:47;;;;;;;14.23;12.73;;;8.20;99.90;;;;;;5033368;28;20211;-86
2022/12/31 12:33:18;;;;;;;16.80;14.63;;;8.30;99.90;;;;;;5033387;28;20226;-86
2022/12/31 12:35:48;;;;;;;14.45;12.50;;;8.40;99.90;;;;;;5033138;28;20242;-86
2022/12/31 12:38:18;;;;;;;18.48;13.52;;;8.30;99.90;;;;;;5032987;28;20203;-86
2022/12/31 12:40:56;;;;;;;15.98;13.45;;;8.30;99.90;;;;;;5033213;28;20212;-86
2022/12/31 12:43:27;;;;;;;18.92;14.38;;;8.30;99.90;;;;;;5032650;28;20206;-86
2022/12/31 12:46:00;;;;;;;15.63;13.98;;;8.30;99.90;;;;;;5032746;28;20231;-85
2022/12/31 12:48:37;;;;;;;16.30;14.07;;;8.30;99.90;;;;;;5032862;28;20233;-86
2022/12/31 12:51:27;;;;;;;16.65;14.23;;;8.40;99.90;;;;;;5032841;28;20217;-86
2022/12/31 12:54:07;;;;;;;15.05;13.45;;;8.40;99.90;;;;;;5032880;28;20229;-85
2022/12/31 12:56:42;;;;;;;17.45;14.68;;;8.40;99.90;;;;;;5032839;28;20222;-86
2022/12/31 12:59:35;;;;;;;14.18;12.73;;;8.50;99.90;;;;;;5032937;28;20202;-87
2022/12/31 13:02:22;;;;;;;16.10;13.98;;;8.60;99.90;;;;;;5032727;28;20203;-86
2022/12/31 13:05:04;;;;;;;17.20;13.68;;;8.60;99.90;;;;;;5032712;28;20253;-86
2022/12/31 13:07:44;;;;;;;15.55;12.88;;;8.70;99.90;;;;;;5032443;28;20229;-86
2022/12/31 13:10:26;;;;;;;18.15;12.75;;;8.80;99.90;;;;;;5032552;28;20214;-86
2022/12/31 13:13:01;;;;;;;16.02;12.48;;;8.80;99.90;;;;;;5032917;28;20218;-86
2022/12/31 13:15:56;;;;;;;16.38;12.77;;;8.90;99.90;;;;;;5032063;28;20226;-87
2022/12/31 13:18:38;;;;;;;14.00;12.60;;;9.00;99.90;;;;;;5032291;28;20206;-87
2022/12/31 13:21:19;;;;;;;14.25;12.77;;;9.10;99.90;;;;;;5032479;28;20217;-87
2022/12/31 13:23:56;;;;;;;15.32;12.40;;;9.10;99.90;;;;;;5032684;28;20218;-86
2022/12/31 13:26:31;;;;;;;15.05;13.55;;;9.00;99.90;;;;;;5032782;28;20232;-88